Terminal Aerodrome Forecast
Issued by NWS Mt. Holly, NJ

Home | Current Version | Previous Version | Text Only | Print | Product List | Glossary On
Versions: 1 2 3 4 5 6 7 8 9 10 11 12 13 14 15 16 17 18 19 20
000
FTUS41 KPHI 010800 AAA
TAFILG
TAF AMD
KILG 010803Z 0108/0206 20006KT P6SM VCSH SCT015 BKN050
      TEMPO 0109/0112 3SM BR BKN010
     FM011400 23008KT P6SM SCT025 BKN060
     FM011800 22010KT 6SM -SHRA BKN040
     FM020000 22008KT P6SM SCT040 BKN100
     FM020300 24004KT P6SM FEW050 SCT100=

USA.gov is the U.S. government's official web portal to all federal, state and local government web resources and services.